Time;durP1;ratioP1;P1;durP2;ratioP2;P2;SDS_P1;SDS_P2;PMS_P1;PMS_P2;Temp;Humidity;BMP_temperature;BMP_pressure;BME280_temperature;BME280_humidity;BME280_pressure;Samples;Min_cycle;Max_cycle;Signal;HPM_P1;HPM_P2
2022/04/03 00:00:27;;;;;;;0.40;0.20;;;1.30;99.90;;;;;;5029577;28;20395;-74
2022/04/03 00:02:53;;;;;;;0.40;0.40;;;1.60;99.90;;;;;;5030595;28;20414;-74
2022/04/03 00:05:19;;;;;;;0.40;0.20;;;1.50;99.90;;;;;;5028965;28;20426;-74
2022/04/03 00:07:48;;;;;;;0.40;0.40;;;1.30;99.90;;;;;;5027954;28;20395;-74
2022/04/03 00:10:17;;;;;;;0.40;0.20;;;1.10;99.90;;;;;;5027217;28;20426;-76
2022/04/03 00:12:46;;;;;;;0.40;0.20;;;1.10;99.90;;;;;;5027813;28;20391;-74
2022/04/03 00:15:13;;;;;;;0.70;0.70;;;1.30;99.90;;;;;;5028189;28;20391;-75
2022/04/03 00:17:39;;;;;;;0.40;0.20;;;1.20;99.90;;;;;;5028565;28;20464;-75
2022/04/03 00:20:05;;;;;;;0.40;0.20;;;1.30;99.90;;;;;;5026604;28;20814;-74
2022/04/03 00:22:30;;;;;;;0.70;0.70;;;1.10;99.90;;;;;;5029184;28;20793;-74
2022/04/03 00:24:56;;;;;;;0.77;0.77;;;1.10;99.90;;;;;;5028776;28;20391;-74
2022/04/03 00:27:22;;;;;;;0.40;0.20;;;1.00;99.90;;;;;;5030252;28;20739;-74
2022/04/03 00:29:47;;;;;;;0.40;0.20;;;1.10;99.90;;;;;;5026594;28;20454;-74
2022/04/03 00:32:13;;;;;;;0.50;0.50;;;1.10;99.90;;;;;;5030719;28;20422;-74
2022/04/03 00:34:38;;;;;;;0.40;0.20;;;1.10;99.90;;;;;;5027371;28;20867;-74
2022/04/03 00:37:04;;;;;;;0.40;0.35;;;1.20;99.90;;;;;;5027956;28;20855;-74
2022/04/03 00:39:30;;;;;;;0.40;0.20;;;1.00;99.90;;;;;;5033565;28;20810;-75
2022/04/03 00:41:56;;;;;;;0.40;0.20;;;0.80;99.90;;;;;;5026598;28;20559;-74
2022/04/03 00:44:23;;;;;;;0.40;0.30;;;0.90;99.90;;;;;;5027295;28;20709;-74
2022/04/03 00:46:50;;;;;;;0.50;0.50;;;1.00;99.90;;;;;;5024555;28;20804;-74
2022/04/03 00:49:16;;;;;;;0.40;0.20;;;1.00;99.90;;;;;;5029742;28;20437;-74
2022/04/03 00:51:41;;;;;;;0.40;0.20;;;1.10;99.90;;;;;;5029687;28;20419;-74
2022/04/03 00:54:08;;;;;;;0.80;0.60;;;1.00;99.90;;;;;;5028923;28;20383;-74
2022/04/03 00:56:34;;;;;;;0.40;0.20;;;1.00;99.90;;;;;;5027430;28;20398;-75
2022/04/03 00:58:59;;;;;;;0.80;0.60;;;1.00;99.90;;;;;;5026221;28;20480;-74
2022/04/03 01:01:25;;;;;;;0.40;0.20;;;1.00;99.90;;;;;;5027376;28;20387;-74
2022/04/03 01:03:51;;;;;;;0.40;0.20;;;1.00;99.90;;;;;;5027380;28;20460;-75
2022/04/03 01:06:17;;;;;;;0.40;0.20;;;1.10;99.90;;;;;;5027468;28;20386;-74
2022/04/03 01:08:43;;;;;;;0.40;0.20;;;1.10;99.90;;;;;;5027676;28;20391;-74
2022/04/03 01:11:12;;;;;;;0.40;0.20;;;1.00;99.90;;;;;;5009004;28;20421;-74
2022/04/03 01:13:46;;;;;;;0.40;0.20;;;1.00;99.90;;;;;;5007572;28;20385;-74
2022/04/03 01:16:13;;;;;;;0.40;0.20;;;1.00;99.90;;;;;;5006564;28;20404;-75
2022/04/03 01:18:40;;;;;;;0.40;0.20;;;1.20;99.90;;;;;;5010074;28;20439;-74
2022/04/03 01:21:06;;;;;;;0.40;0.20;;;1.00;99.90;;;;;;5008843;28;20421;-74
2022/04/03 01:23:31;;;;;;;0.40;0.20;;;1.00;99.90;;;;;;5008232;28;20497;-74
2022/04/03 01:25:57;;;;;;;0.40;0.20;;;1.10;99.90;;;;;;5007512;28;20929;-74
2022/04/03 01:28:24;;;;;;;0.40;0.30;;;0.90;99.90;;;;;;5009738;28;20504;-74
2022/04/03 01:30:50;;;;;;;0.40;0.20;;;1.20;99.90;;;;;;5029771;28;20410;-74
2022/04/03 01:33:17;;;;;;;1.00;0.90;;;1.00;99.90;;;;;;5032571;28;20744;-76
2022/04/03 01:35:44;;;;;;;0.40;0.20;;;1.00;99.90;;;;;;5040358;28;20399;-74
2022/04/03 01:38:09;;;;;;;0.40;0.20;;;1.00;99.90;;;;;;5031669;28;20395;-74
2022/04/03 01:40:35;;;;;;;0.40;0.20;;;1.10;99.90;;;;;;5031800;28;20798;-74
2022/04/03 01:43:10;;;;;;;0.40;0.30;;;1.10;99.90;;;;;;5032772;28;20395;-74
2022/04/03 01:45:39;;;;;;;0.40;0.30;;;1.20;99.90;;;;;;5032434;28;20387;-74
2022/04/03 01:48:07;;;;;;;0.40;0.20;;;1.20;99.90;;;;;;5034994;28;20454;-74
2022/04/03 01:50:32;;;;;;;0.40;0.30;;;1.00;99.90;;;;;;5034064;28;20442;-74
2022/04/03 01:52:59;;;;;;;0.70;0.70;;;0.90;99.90;;;;;;5032719;28;21276;-74
2022/04/03 01:55:26;;;;;;;0.40;0.20;;;1.00;99.90;;;;;;5033215;28;20424;-74
2022/04/03 01:57:52;;;;;;;0.40;0.20;;;0.90;99.90;;;;;;5030707;28;20399;-75
2022/04/03 02:00:19;;;;;;;0.40;0.20;;;0.90;99.90;;;;;;5032967;28;20402;-74
2022/04/03 02:02:45;;;;;;;0.40;0.30;;;1.00;99.90;;;;;;5031827;28;20380;-75
2022/04/03 02:05:11;;;;;;;0.40;0.20;;;1.00;99.90;;;;;;5032429;28;20431;-74
2022/04/03 02:07:38;;;;;;;0.70;0.70;;;0.90;99.90;;;;;;5032844;28;20390;-74
2022/04/03 02:10:08;;;;;;;0.40;0.20;;;1.00;99.90;;;;;;5023173;28;20389;-74
2022/04/03 02:12:35;;;;;;;0.40;0.30;;;1.10;99.90;;;;;;5026094;28;20887;-74
2022/04/03 02:15:01;;;;;;;0.90;0.90;;;1.10;99.90;;;;;;5031467;28;20387;-74
2022/04/03 02:17:26;;;;;;;0.40;0.20;;;1.10;99.90;;;;;;5031210;28;20387;-74
2022/04/03 02:19:52;;;;;;;0.40;0.20;;;1.10;99.90;;;;;;5032037;28;20395;-76
2022/04/03 02:22:18;;;;;;;0.40;0.20;;;1.20;99.90;;;;;;5031855;28;20426;-74
2022/04/03 02:24:43;;;;;;;0.40;0.20;;;1.30;99.90;;;;;;5032042;28;20740;-74
2022/04/03 02:27:09;;;;;;;1.00;0.90;;;1.10;99.90;;;;;;5031031;28;20387;-74
2022/04/03 02:29:35;;;;;;;0.40;0.20;;;1.00;99.90;;;;;;5032291;28;20731;-74
2022/04/03 02:32:00;;;;;;;0.80;0.80;;;1.00;99.90;;;;;;5031097;28;20446;-74
2022/04/03 02:34:26;;;;;;;0.40;0.20;;;1.10;99.90;;;;;;5030282;28;20383;-74
2022/04/03 02:36:52;;;;;;;0.40;0.20;;;1.00;99.90;;;;;;5030750;28;20474;-74
2022/04/03 02:39:18;;;;;;;0.40;0.30;;;0.80;99.90;;;;;;5031066;28;20387;-74
2022/04/03 02:41:44;;;;;;;0.40;0.30;;;0.90;99.90;;;;;;5032164;28;20809;-74
2022/04/03 02:44:10;;;;;;;0.40;0.20;;;1.00;99.90;;;;;;5034236;28;20391;-74
2022/04/03 02:46:37;;;;;;;0.40;0.30;;;0.90;99.90;;;;;;5032089;28;20406;-74
2022/04/03 02:49:04;;;;;;;0.40;0.20;;;0.90;99.90;;;;;;5034724;28;20437;-74
2022/04/03 02:51:30;;;;;;;0.40;0.20;;;1.00;99.90;;;;;;5031889;28;20411;-74
2022/04/03 02:53:55;;;;;;;0.40;0.30;;;1.00;99.90;;;;;;5038775;28;20388;-74
2022/04/03 02:56:21;;;;;;;0.40;0.20;;;1.00;99.90;;;;;;5039915;28;20383;-74
2022/04/03 02:58:48;;;;;;;0.40;0.40;;;1.10;99.90;;;;;;5030859;28;20521;-74
2022/04/03 03:01:14;;;;;;;0.40;0.20;;;1.00;99.90;;;;;;5031719;28;20744;-74
2022/04/03 03:03:39;;;;;;;0.40;0.20;;;1.00;99.90;;;;;;5030545;28;20383;-74
2022/04/03 03:06:06;;;;;;;0.40;0.20;;;1.10;99.90;;;;;;5038578;28;20382;-74
2022/04/03 03:08:31;;;;;;;0.40;0.30;;;1.00;99.90;;;;;;5037011;28;20924;-75
2022/04/03 03:10:57;;;;;;;0.70;0.70;;;0.90;99.90;;;;;;5032381;28;20425;-75
2022/04/03 03:13:23;;;;;;;0.40;0.20;;;0.90;99.90;;;;;;5030290;28;20406;-74
2022/04/03 03:15:49;;;;;;;0.40;0.28;;;0.90;99.90;;;;;;5037712;28;20894;-74
2022/04/03 03:18:15;;;;;;;0.40;0.20;;;1.00;99.90;;;;;;5030132;28;20402;-74
2022/04/03 03:20:40;;;;;;;0.60;0.50;;;0.80;99.90;;;;;;5029713;28;20461;-74
2022/04/03 03:23:06;;;;;;;0.40;0.20;;;1.00;99.90;;;;;;5029088;28;20717;-73
2022/04/03 03:25:31;;;;;;;0.40;0.20;;;0.90;99.90;;;;;;5030991;28;20445;-74
2022/04/03 03:27:57;;;;;;;0.40;0.20;;;1.00;99.90;;;;;;5030458;28;20383;-74
2022/04/03 03:30:23;;;;;;;0.40;0.30;;;1.10;99.90;;;;;;5030994;28;20771;-73
2022/04/03 03:32:49;;;;;;;0.40;0.20;;;0.80;99.90;;;;;;5031365;28;20470;-74
2022/04/03 03:35:14;;;;;;;0.40;0.20;;;0.90;99.90;;;;;;5030320;28;20453;-74
2022/04/03 03:37:40;;;;;;;0.40;0.30;;;0.90;99.90;;;;;;5031175;28;20470;-75
2022/04/03 03:40:11;;;;;;;0.40;0.20;;;0.90;99.90;;;;;;5028815;28;20391;-76
2022/04/03 03:42:38;;;;;;;0.70;0.70;;;0.70;99.90;;;;;;5031294;28;20390;-74
2022/04/03 03:45:04;;;;;;;0.50;0.40;;;0.60;99.90;;;;;;5030992;28;20748;-74
2022/04/03 03:47:29;;;;;;;0.40;0.40;;;0.80;99.90;;;;;;5030676;28;20390;-74
2022/04/03 03:49:55;;;;;;;0.40;0.20;;;0.70;99.90;;;;;;5031289;28;20911;-74
2022/04/03 03:52:21;;;;;;;0.90;0.60;;;0.90;99.90;;;;;;5030025;28;20419;-74
2022/04/03 03:54:46;;;;;;;0.40;0.20;;;1.00;99.90;;;;;;5030840;28;20384;-75
2022/04/03 03:57:13;;;;;;;0.40;0.20;;;0.70;99.90;;;;;;5031101;28;20379;-74
2022/04/03 03:59:38;;;;;;;0.90;0.80;;;0.80;99.90;;;;;;5029764;28;20399;-74
2022/04/03 04:02:04;;;;;;;0.40;0.30;;;0.80;99.90;;;;;;5030683;28;20395;-74
2022/04/03 04:04:30;;;;;;;1.10;0.90;;;0.90;99.90;;;;;;5031111;28;20383;-74
2022/04/03 04:06:56;;;;;;;0.60;0.60;;;0.90;99.90;;;;;;5029146;28;20418;-73
2022/04/03 04:09:22;;;;;;;0.40;0.20;;;0.90;99.90;;;;;;5027550;28;20741;-74
2022/04/03 04:11:48;;;;;;;0.80;0.80;;;1.00;99.90;;;;;;5008706;28;20459;-74
2022/04/03 04:14:14;;;;;;;0.47;0.47;;;0.90;99.90;;;;;;5009468;28;20393;-75
2022/04/03 04:16:42;;;;;;;0.40;0.40;;;0.90;99.90;;;;;;5027468;28;20466;-75
2022/04/03 04:19:09;;;;;;;0.40;0.20;;;0.80;99.90;;;;;;5030594;28;20446;-75
2022/04/03 04:21:35;;;;;;;0.80;0.50;;;1.00;99.90;;;;;;5037831;28;20423;-74
2022/04/03 04:24:01;;;;;;;0.40;0.27;;;1.00;99.90;;;;;;5029914;28;20384;-74
2022/04/03 04:26:26;;;;;;;0.40;0.20;;;1.00;99.90;;;;;;5027213;28;20408;-74
2022/04/03 04:28:52;;;;;;;0.60;0.60;;;1.00;99.90;;;;;;5023610;28;20387;-74
2022/04/03 04:31:19;;;;;;;0.40;0.20;;;1.00;99.90;;;;;;5027700;28;20411;-75
2022/04/03 04:33:44;;;;;;;0.40;0.20;;;1.00;99.90;;;;;;5029264;28;20403;-74
2022/04/03 04:36:10;;;;;;;0.50;0.50;;;1.10;99.90;;;;;;5029596;28;20383;-74
2022/04/03 04:38:36;;;;;;;0.68;0.68;;;1.10;99.90;;;;;;5030553;28;20390;-74
2022/04/03 04:41:02;;;;;;;0.60;0.60;;;0.80;99.90;;;;;;5028386;28;20391;-75
2022/04/03 04:43:28;;;;;;;0.60;0.60;;;0.90;99.90;;;;;;5025843;28;21305;-76
2022/04/03 04:45:54;;;;;;;0.50;0.50;;;0.90;99.90;;;;;;5021707;28;20482;-75
2022/04/03 04:48:20;;;;;;;0.40;0.40;;;1.00;99.90;;;;;;5022895;28;20414;-75
2022/04/03 04:50:45;;;;;;;0.40;0.20;;;0.90;99.90;;;;;;5030737;28;20426;-74
2022/04/03 04:53:11;;;;;;;0.40;0.30;;;0.80;99.90;;;;;;5029735;28;20391;-77
2022/04/03 04:55:37;;;;;;;0.40;0.20;;;1.00;99.90;;;;;;5035875;28;20402;-74
2022/04/03 04:58:02;;;;;;;0.40;0.20;;;1.00;99.90;;;;;;5030424;28;20389;-74
2022/04/03 05:00:30;;;;;;;0.40;0.30;;;0.90;99.90;;;;;;5028031;28;20884;-74
2022/04/03 05:02:57;;;;;;;0.40;0.20;;;0.70;99.90;;;;;;5028888;28;20949;-74
2022/04/03 05:05:22;;;;;;;0.68;0.68;;;0.70;99.90;;;;;;5029965;28;20436;-76
2022/04/03 05:07:53;;;;;;;0.40;0.20;;;0.80;99.90;;;;;;5048821;28;20389;-74
2022/04/03 05:10:20;;;;;;;0.40;0.20;;;0.70;99.90;;;;;;5027979;28;20388;-75
2022/04/03 05:12:46;;;;;;;0.40;0.20;;;0.80;99.90;;;;;;5014843;28;21064;-75
2022/04/03 05:15:13;;;;;;;0.40;0.30;;;0.90;99.90;;;;;;5033839;28;20447;-75
2022/04/03 05:17:41;;;;;;;0.40;0.20;;;0.80;99.90;;;;;;5031782;28;20395;-76
2022/04/03 05:20:07;;;;;;;0.40;0.30;;;0.80;99.90;;;;;;5033429;28;20398;-75
2022/04/03 05:22:33;;;;;;;0.40;0.20;;;0.90;99.90;;;;;;5031496;28;20518;-75
2022/04/03 05:25:01;;;;;;;3.90;1.20;;;0.80;99.90;;;;;;5031685;28;20476;-75
2022/04/03 05:27:28;;;;;;;0.40;0.30;;;0.90;99.90;;;;;;5033728;28;20383;-75
2022/04/03 05:29:55;;;;;;;0.60;0.60;;;1.00;99.90;;;;;;5032647;28;20390;-75
2022/04/03 05:32:28;;;;;;;0.40;0.20;;;1.10;99.90;;;;;;5033455;28;20460;-75
2022/04/03 05:34:56;;;;;;;0.40;0.40;;;1.00;99.90;;;;;;5033011;28;20920;-77
2022/04/03 05:37:22;;;;;;;0.40;0.20;;;0.90;99.90;;;;;;5032106;28;20414;-75
2022/04/03 05:39:51;;;;;;;0.50;0.50;;;0.90;99.90;;;;;;5033672;28;20383;-75
2022/04/03 05:42:17;;;;;;;0.40;0.20;;;0.90;99.90;;;;;;5032608;28;20419;-75
2022/04/03 05:44:46;;;;;;;0.40;0.20;;;0.90;99.90;;;;;;5034497;28;20388;-75
2022/04/03 05:47:11;;;;;;;0.40;0.30;;;0.90;99.90;;;;;;5032428;28;20390;-75
2022/04/03 05:49:37;;;;;;;0.60;0.50;;;0.90;99.90;;;;;;5033366;28;20395;-75
2022/04/03 05:52:04;;;;;;;0.40;0.20;;;1.00;99.90;;;;;;5033181;28;20764;-75
2022/04/03 05:54:30;;;;;;;0.40;0.20;;;1.10;99.90;;;;;;5032447;28;20422;-75
2022/04/03 05:56:56;;;;;;;0.40;0.20;;;1.10;99.90;;;;;;5032918;28;20792;-75
2022/04/03 05:59:22;;;;;;;0.40;0.20;;;1.10;99.90;;;;;;5029500;28;20482;-75
2022/04/03 06:01:48;;;;;;;0.40;0.20;;;1.10;99.90;;;;;;5028342;28;20482;-75
2022/04/03 06:04:15;;;;;;;0.40;0.20;;;1.20;99.90;;;;;;5032472;28;20914;-75
2022/04/03 06:06:41;;;;;;;0.47;0.43;;;1.20;99.90;;;;;;5032631;28;20383;-75
2022/04/03 06:09:07;;;;;;;0.40;0.22;;;1.20;99.90;;;;;;5029466;28;20443;-75
2022/04/03 06:11:33;;;;;;;0.40;0.20;;;1.20;99.90;;;;;;5031812;28;20415;-75
2022/04/03 06:14:00;;;;;;;0.40;0.20;;;1.20;99.90;;;;;;5028739;28;20450;-76
2022/04/03 06:16:26;;;;;;;0.40;0.30;;;1.30;99.90;;;;;;5015768;28;20885;-75
2022/04/03 06:18:53;;;;;;;0.40;0.40;;;1.30;99.90;;;;;;5010079;28;20385;-75
2022/04/03 06:21:19;;;;;;;0.40;0.40;;;1.20;99.90;;;;;;5020971;28;20487;-75
2022/04/03 06:23:45;;;;;;;0.40;0.30;;;1.30;99.90;;;;;;5028725;28;20394;-75
2022/04/03 06:26:11;;;;;;;0.40;0.20;;;1.50;99.90;;;;;;5023266;28;20379;-75
2022/04/03 06:28:37;;;;;;;0.40;0.20;;;1.40;99.90;;;;;;5026277;28;20429;-75
2022/04/03 06:31:02;;;;;;;0.50;0.50;;;1.40;99.90;;;;;;5018472;28;20407;-74
2022/04/03 06:33:28;;;;;;;0.40;0.30;;;1.30;99.90;;;;;;5020006;28;20393;-75
2022/04/03 06:35:54;;;;;;;0.40;0.20;;;1.20;99.90;;;;;;5020375;28;20482;-78
2022/04/03 06:38:20;;;;;;;0.40;0.40;;;1.20;99.90;;;;;;5021828;28;20458;-75
2022/04/03 06:40:57;;;;;;;0.40;0.30;;;1.30;99.90;;;;;;5019570;28;20398;-75
2022/04/03 06:43:26;;;;;;;0.40;0.20;;;1.30;99.90;;;;;;5020079;28;20404;-75
2022/04/03 06:45:52;;;;;;;0.60;0.60;;;1.30;99.90;;;;;;5025437;28;20392;-75
2022/04/03 06:48:18;;;;;;;0.40;0.20;;;1.40;99.90;;;;;;5021529;28;20505;-74
2022/04/03 06:50:44;;;;;;;0.65;0.38;;;1.20;99.90;;;;;;5022128;28;20418;-74
2022/04/03 06:53:11;;;;;;;0.80;0.80;;;1.20;99.90;;;;;;5018241;28;20462;-75
2022/04/03 06:55:37;;;;;;;0.60;0.50;;;1.20;99.90;;;;;;5022830;28;20780;-75
2022/04/03 06:58:03;;;;;;;0.40;0.20;;;1.30;99.90;;;;;;5021193;28;20372;-74
2022/04/03 07:00:29;;;;;;;0.40;0.30;;;1.30;99.90;;;;;;5020853;28;20387;-74
2022/04/03 07:02:55;;;;;;;0.40;0.20;;;1.10;99.90;;;;;;5021852;28;20423;-75
2022/04/03 07:05:21;;;;;;;0.40;0.20;;;1.20;99.90;;;;;;5025264;28;20413;-75
2022/04/03 07:07:51;;;;;;;0.47;0.47;;;1.10;99.90;;;;;;5026298;28;20385;-74
2022/04/03 07:10:17;;;;;;;0.40;0.20;;;1.20;99.90;;;;;;5023409;28;20387;-77
2022/04/03 07:12:43;;;;;;;0.40;0.20;;;1.40;99.90;;;;;;5017691;28;20425;-75
2022/04/03 07:15:11;;;;;;;1.37;1.27;;;1.50;99.90;;;;;;5021641;28;20392;-74
2022/04/03 07:17:38;;;;;;;0.40;0.20;;;1.50;99.90;;;;;;5027023;28;20400;-75
2022/04/03 07:20:06;;;;;;;0.40;0.30;;;1.50;99.90;;;;;;5031432;28;20433;-75
2022/04/03 07:22:31;;;;;;;0.40;0.20;;;1.50;99.90;;;;;;5031198;28;20407;-74
2022/04/03 07:24:57;;;;;;;0.40;0.30;;;1.50;99.90;;;;;;5031282;28;20398;-75
2022/04/03 07:27:23;;;;;;;0.40;0.20;;;1.70;99.90;;;;;;5050736;28;20469;-74
2022/04/03 07:29:49;;;;;;;0.40;0.30;;;1.60;99.90;;;;;;5050487;28;20405;-74
2022/04/03 07:32:14;;;;;;;0.50;0.50;;;1.80;99.90;;;;;;5049780;28;20413;-73
2022/04/03 07:34:40;;;;;;;0.40;0.20;;;1.70;99.90;;;;;;5050284;28;20397;-75
2022/04/03 07:37:06;;;;;;;0.40;0.20;;;2.00;99.90;;;;;;5047939;28;20412;-75
2022/04/03 07:39:31;;;;;;;1.00;0.90;;;2.00;99.90;;;;;;5024415;28;20494;-75
2022/04/03 07:41:57;;;;;;;0.80;0.80;;;2.10;99.90;;;;;;5028881;28;20545;-75
2022/04/03 07:44:23;;;;;;;0.40;0.20;;;2.10;99.90;;;;;;5030511;28;20387;-75
2022/04/03 07:46:49;;;;;;;0.40;0.20;;;1.90;99.90;;;;;;5018497;28;20392;-75
2022/04/03 07:49:15;;;;;;;1.20;0.90;;;1.90;99.90;;;;;;5011366;28;20467;-74
2022/04/03 07:51:41;;;;;;;0.40;0.20;;;2.20;99.90;;;;;;5014117;28;20889;-75
2022/04/03 07:54:07;;;;;;;0.40;0.40;;;2.30;99.90;;;;;;5030233;28;20402;-74
2022/04/03 07:56:33;;;;;;;0.60;0.50;;;2.10;99.90;;;;;;5021692;28;20474;-75
2022/04/03 07:58:58;;;;;;;0.40;0.20;;;2.50;99.90;;;;;;5019696;28;20387;-75
2022/04/03 08:01:24;;;;;;;0.60;0.60;;;2.40;99.90;;;;;;5022549;28;20781;-74
2022/04/03 08:03:50;;;;;;;0.60;0.60;;;2.40;99.90;;;;;;5010751;28;20388;-78
2022/04/03 08:06:16;;;;;;;0.90;0.90;;;2.40;99.90;;;;;;5019195;28;20390;-75
2022/04/03 08:08:42;;;;;;;0.50;0.50;;;2.60;99.90;;;;;;5027934;28;20895;-75
2022/04/03 08:11:08;;;;;;;0.40;0.40;;;2.50;99.90;;;;;;5028547;28;20419;-73
2022/04/03 08:13:33;;;;;;;0.40;0.20;;;2.60;99.90;;;;;;5030568;28;20728;-74
2022/04/03 08:16:01;;;;;;;0.40;0.30;;;2.60;99.90;;;;;;5030650;28;20387;-76
2022/04/03 08:18:27;;;;;;;0.50;0.50;;;2.70;99.90;;;;;;5030680;28;20388;-74
2022/04/03 08:20:53;;;;;;;1.20;0.50;;;2.40;99.90;;;;;;5030568;28;20430;-73
2022/04/03 08:23:19;;;;;;;0.60;0.60;;;2.80;99.90;;;;;;5028244;28;20859;-74
2022/04/03 08:25:45;;;;;;;0.40;0.20;;;2.70;99.90;;;;;;5029041;28;20474;-73
2022/04/03 08:28:11;;;;;;;0.40;0.20;;;2.50;99.90;;;;;;5028246;28;20387;-74
2022/04/03 08:30:38;;;;;;;0.40;0.30;;;2.70;99.90;;;;;;5030369;28;20375;-73
2022/04/03 08:33:05;;;;;;;0.40;0.20;;;2.80;99.90;;;;;;5030124;28;20387;-74
2022/04/03 08:35:32;;;;;;;0.40;0.20;;;2.80;99.90;;;;;;5028002;28;20430;-74
2022/04/03 08:38:00;;;;;;;0.40;0.20;;;2.80;99.90;;;;;;5030624;28;20379;-73
2022/04/03 08:40:26;;;;;;;0.40;0.30;;;2.80;99.90;;;;;;5029546;28;20415;-74
2022/04/03 08:42:54;;;;;;;0.40;0.28;;;3.10;99.90;;;;;;5033284;28;20470;-76
2022/04/03 08:45:22;;;;;;;0.40;0.20;;;2.90;99.90;;;;;;5032238;28;20394;-76
2022/04/03 08:47:52;;;;;;;0.40;0.30;;;2.50;99.90;;;;;;5032995;28;20482;-76
2022/04/03 08:50:20;;;;;;;0.40;0.20;;;2.90;99.90;;;;;;5032945;28;20950;-81
2022/04/03 08:52:47;;;;;;;0.40;0.20;;;2.90;99.90;;;;;;5033769;28;20506;-74
2022/04/03 08:55:14;;;;;;;0.95;0.43;;;2.80;99.90;;;;;;5032965;28;20403;-76
2022/04/03 08:57:40;;;;;;;0.40;0.30;;;2.60;99.90;;;;;;5031979;28;20418;-76
2022/04/03 09:00:07;;;;;;;0.40;0.20;;;2.80;99.90;;;;;;5034033;28;20436;-76
2022/04/03 09:02:33;;;;;;;0.40;0.20;;;2.70;99.90;;;;;;5033066;28;20440;-77
2022/04/03 09:04:59;;;;;;;1.00;1.00;;;3.20;99.90;;;;;;5033994;28;20379;-76
2022/04/03 09:07:25;;;;;;;2.70;0.83;;;2.90;99.90;;;;;;5033571;28;20392;-77
2022/04/03 09:09:59;;;;;;;1.10;0.90;;;2.80;99.90;;;;;;5026030;28;20392;-77
2022/04/03 09:12:26;;;;;;;0.40;0.40;;;3.10;99.90;;;;;;5014082;28;20457;-76
2022/04/03 09:14:55;;;;;;;0.40;0.20;;;3.40;99.90;;;;;;5013145;28;20402;-76
2022/04/03 09:17:38;;;;;;;1.50;1.10;;;3.20;99.90;;;;;;5014048;28;20400;-77
2022/04/03 09:20:15;;;;;;;1.40;1.40;;;3.30;99.90;;;;;;5013629;28;20486;-76
2022/04/03 09:22:45;;;;;;;0.40;0.30;;;3.40;99.90;;;;;;5012897;28;20881;-79
2022/04/03 09:25:12;;;;;;;0.40;0.20;;;3.50;99.90;;;;;;5013663;28;20380;-77
2022/04/03 09:27:50;;;;;;;0.40;0.35;;;3.70;99.90;;;;;;5012465;28;20403;-76
2022/04/03 09:30:18;;;;;;;0.40;0.20;;;3.60;99.90;;;;;;5013980;28;20464;-76
2022/04/03 09:32:57;;;;;;;0.40;0.20;;;3.60;99.90;;;;;;5012123;28;20425;-79
2022/04/03 09:36:01;;;;;;;0.40;0.20;;;3.50;99.90;;;;;;5013696;28;20476;-76
2022/04/03 09:38:29;;;;;;;0.40;0.20;;;3.30;99.90;;;;;;5012632;28;20397;-76
2022/04/03 09:40:57;;;;;;;0.40;0.20;;;3.30;99.90;;;;;;5012567;28;20398;-77
2022/04/03 09:43:28;;;;;;;0.40;0.20;;;3.40;99.90;;;;;;5012077;28;20901;-75
2022/04/03 09:45:56;;;;;;;0.40;0.20;;;3.30;99.90;;;;;;5013114;28;20489;-78
2022/04/03 09:48:34;;;;;;;0.40;0.20;;;3.20;99.90;;;;;;5013485;28;20467;-76
2022/04/03 09:51:00;;;;;;;0.40;0.20;;;3.30;99.90;;;;;;5011079;28;20448;-76
2022/04/03 09:53:39;;;;;;;0.50;0.50;;;3.80;99.90;;;;;;5013117;28;20447;-74
2022/04/03 09:56:16;;;;;;;0.40;0.20;;;3.70;99.90;;;;;;5012725;28;20385;-74
2022/04/03 09:58:54;;;;;;;0.40;0.30;;;4.10;99.90;;;;;;5011981;28;20441;-74
2022/04/03 10:01:28;;;;;;;0.50;0.50;;;3.80;99.90;;;;;;5012500;28;20384;-73
2022/04/03 10:03:55;;;;;;;1.60;1.50;;;4.00;99.90;;;;;;5012161;28;20393;-73
2022/04/03 10:06:23;;;;;;;0.70;0.70;;;3.70;99.90;;;;;;5012182;28;20896;-74
2022/04/03 10:08:50;;;;;;;0.40;0.30;;;4.40;99.90;;;;;;5011717;28;20393;-74
2022/04/03 10:11:16;;;;;;;0.40;0.20;;;4.90;99.90;;;;;;5030225;28;20879;-74
2022/04/03 10:13:46;;;;;;;0.40;0.20;;;5.00;99.90;;;;;;5031417;28;20473;-73
2022/04/03 10:16:13;;;;;;;0.70;0.70;;;5.00;99.90;;;;;;5032053;28;20390;-76
2022/04/03 10:18:43;;;;;;;0.40;0.20;;;4.90;99.90;;;;;;5032512;28;20414;-74
2022/04/03 10:21:21;;;;;;;0.40;0.30;;;4.60;99.90;;;;;;5032440;28;20403;-73
2022/04/03 10:23:48;;;;;;;0.40;0.30;;;4.20;99.90;;;;;;5032629;28;20387;-74
2022/04/03 10:26:18;;;;;;;0.40;0.30;;;4.40;99.90;;;;;;5032453;28;20380;-75
2022/04/03 10:28:52;;;;;;;0.40;0.20;;;4.30;99.90;;;;;;5032596;28;20387;-73
2022/04/03 10:31:18;;;;;;;0.40;0.20;;;4.30;99.90;;;;;;5030884;28;20752;-76
2022/04/03 10:33:48;;;;;;;0.40;0.30;;;3.90;99.90;;;;;;5032045;28;20469;-73
2022/04/03 10:36:17;;;;;;;0.40;0.30;;;3.90;99.90;;;;;;5031356;28;20808;-72
2022/04/03 10:38:59;;;;;;;0.60;0.60;;;3.90;99.90;;;;;;5031007;28;20890;-73
2022/04/03 10:41:35;;;;;;;0.40;0.30;;;4.30;99.90;;;;;;5032011;28;20825;-75
2022/04/03 10:44:16;;;;;;;0.40;0.20;;;4.10;99.90;;;;;;5032513;28;20391;-72
2022/04/03 10:47:04;;;;;;;0.40;0.25;;;4.20;99.90;;;;;;5031306;28;20395;-73
2022/04/03 10:49:43;;;;;;;0.40;0.20;;;3.90;99.90;;;;;;5031431;28;20452;-75
2022/04/03 10:52:23;;;;;;;0.40;0.20;;;3.90;99.90;;;;;;5038472;28;20424;-73
2022/04/03 10:54:52;;;;;;;0.40;0.20;;;3.90;99.90;;;;;;5051244;28;20388;-73
2022/04/03 10:58:02;;;;;;;0.40;0.40;;;3.80;99.90;;;;;;5052001;28;20381;-73
2022/04/03 11:00:27;;;;;;;0.40;0.20;;;3.70;99.90;;;;;;4974033;28;20883;-73
2022/04/03 11:03:00;;;;;;;0.40;0.40;;;3.80;99.90;;;;;;4989541;28;20398;-73
2022/04/03 11:05:29;;;;;;;1.00;0.90;;;4.10;99.90;;;;;;5023657;28;20401;-73
2022/04/03 11:08:01;;;;;;;0.40;0.20;;;4.10;99.90;;;;;;5049738;28;21248;-74
2022/04/03 11:10:57;;;;;;;0.70;0.50;;;4.20;99.90;;;;;;5050345;28;20913;-73
2022/04/03 11:13:30;;;;;;;0.70;0.50;;;3.90;99.90;;;;;;5051839;28;20463;-74
2022/04/03 11:15:57;;;;;;;0.40;0.20;;;3.90;99.90;;;;;;5049683;28;20408;-73
2022/04/03 11:18:29;;;;;;;0.40;0.40;;;3.90;99.90;;;;;;5050752;28;20493;-73
2022/04/03 11:21:26;;;;;;;0.40;0.30;;;3.80;99.90;;;;;;5050942;28;20417;-73
2022/04/03 11:24:06;;;;;;;0.50;0.50;;;3.80;99.90;;;;;;5050856;28;20390;-73
2022/04/03 11:26:33;;;;;;;0.40;0.40;;;3.80;99.90;;;;;;5051632;28;20714;-73
2022/04/03 11:29:00;;;;;;;0.40;0.20;;;4.10;99.90;;;;;;5050397;28;20788;-73
2022/04/03 11:31:27;;;;;;;0.40;0.20;;;3.30;99.90;;;;;;5051321;28;20493;-73
2022/04/03 11:33:53;;;;;;;0.40;0.20;;;3.30;99.90;;;;;;5050893;28;20423;-74
2022/04/03 11:36:24;;;;;;;0.40;0.40;;;3.60;99.90;;;;;;5049688;28;20386;-73
2022/04/03 11:38:51;;;;;;;0.40;0.20;;;3.80;99.90;;;;;;5051359;28;20435;-73
2022/04/03 11:41:27;;;;;;;0.60;0.60;;;4.00;99.90;;;;;;5050539;28;20885;-73
2022/04/03 11:44:16;;;;;;;0.40;0.20;;;4.40;99.90;;;;;;5050866;28;20500;-73
2022/04/03 11:46:49;;;;;;;0.40;0.30;;;4.30;99.90;;;;;;5039360;28;20547;-73
2022/04/03 11:49:25;;;;;;;0.40;0.20;;;4.10;99.90;;;;;;5050300;28;20389;-73
2022/04/03 11:52:09;;;;;;;0.40;0.20;;;4.10;99.90;;;;;;5026465;28;20419;-73
2022/04/03 11:54:36;;;;;;;0.40;0.20;;;4.10;99.90;;;;;;5043559;28;20417;-73
2022/04/03 11:57:05;;;;;;;0.40;0.20;;;3.90;99.90;;;;;;5024108;28;20384;-75
2022/04/03 11:59:36;;;;;;;0.40;0.20;;;3.80;99.90;;;;;;5031006;28;20398;-74
2022/04/03 12:02:15;;;;;;;0.40;0.40;;;3.90;99.90;;;;;;5030734;28;20868;-73
2022/04/03 12:04:42;;;;;;;0.40;0.20;;;4.10;99.90;;;;;;5030945;28;20725;-73
2022/04/03 12:07:13;;;;;;;0.98;0.75;;;4.40;99.90;;;;;;5030771;28;20383;-74
2022/04/03 12:09:43;;;;;;;0.40;0.20;;;4.60;99.90;;;;;;5025694;28;20748;-73
2022/04/03 12:12:10;;;;;;;0.50;0.50;;;4.60;99.90;;;;;;5015868;28;20959;-74
2022/04/03 12:14:40;;;;;;;0.40;0.30;;;4.50;99.90;;;;;;5009420;28;20417;-72
2022/04/03 12:17:10;;;;;;;0.40;0.20;;;4.30;99.90;;;;;;5016311;28;20398;-73
2022/04/03 12:19:42;;;;;;;0.40;0.20;;;4.50;99.90;;;;;;5023748;28;20871;-73
2022/04/03 12:22:10;;;;;;;0.40;0.20;;;4.60;99.90;;;;;;5023014;28;20425;-74
2022/04/03 12:24:37;;;;;;;0.40;0.30;;;4.60;99.90;;;;;;5022340;28;20441;-73
2022/04/03 12:27:15;;;;;;;0.40;0.20;;;4.60;99.90;;;;;;5026429;28;20414;-73
2022/04/03 12:29:43;;;;;;;0.50;0.50;;;4.60;99.90;;;;;;5018876;28;20401;-73
2022/04/03 12:32:15;;;;;;;0.40;0.20;;;4.80;99.90;;;;;;5021511;28;20405;-73
2022/04/03 12:34:43;;;;;;;0.60;0.50;;;5.20;99.90;;;;;;5020382;28;20383;-73
2022/04/03 12:37:10;;;;;;;0.40;0.20;;;5.00;99.90;;;;;;5018778;28;20405;-73
2022/04/03 12:39:38;;;;;;;0.40;0.20;;;4.80;99.90;;;;;;5019438;28;20386;-73
2022/04/03 12:42:26;;;;;;;0.40;0.20;;;4.80;99.90;;;;;;5018765;28;20400;-73
2022/04/03 12:44:51;;;;;;;0.40;0.20;;;5.00;99.90;;;;;;5021487;28;20395;-73
2022/04/03 12:47:18;;;;;;;0.73;0.60;;;5.00;99.90;;;;;;5019416;28;20379;-73
2022/04/03 12:50:14;;;;;;;0.40;0.20;;;5.00;99.90;;;;;;5016400;28;20458;-73
2022/04/03 12:52:50;;;;;;;0.40;0.20;;;4.30;99.90;;;;;;5016546;28;20416;-73
2022/04/03 12:55:24;;;;;;;0.40;0.30;;;4.60;99.90;;;;;;5020172;28;20479;-72
2022/04/03 13:00:54;;;;;;;0.40;0.30;;;5.20;99.90;;;;;;5021773;28;20384;-71
2022/04/03 13:03:23;;;;;;;0.40;0.20;;;5.10;99.90;;;;;;5026639;28;21024;-74
2022/04/03 13:05:48;;;;;;;0.40;0.20;;;5.20;99.90;;;;;;5010880;28;20393;-73